Time;durP1;ratioP1;P1;durP2;ratioP2;P2;SDS_P1;SDS_P2;PMS_P1;PMS_P2;Temp;Humidity;BMP_temperature;BMP_pressure;BME280_temperature;BME280_humidity;BME280_pressure;Samples;Min_cycle;Max_cycle;Signal;HPM_P1;HPM_P2
2023/03/31 00:02:12;;;;;;;10.30;8.60;;;;;;;10.33;84.53;99343.13;103642;278;175302;-72
2023/03/31 00:04:51;;;;;;;9.90;7.80;;;;;;;10.30;84.26;99346.61;103801;278;38531;-73
2023/03/31 00:07:25;;;;;;;10.00;8.00;;;;;;;10.28;84.18;99341.66;103818;278;38531;-71
2023/03/31 00:10:00;;;;;;;10.30;8.60;;;;;;;10.29;84.26;99337.95;103780;278;38290;-69
2023/03/31 00:12:35;;;;;;;9.70;8.20;;;;;;;10.30;84.25;99339.98;103745;279;38580;-71
2023/03/31 00:15:10;;;;;;;11.70;8.70;;;;;;;10.30;84.36;99342.77;103774;279;39842;-70
2023/03/31 00:17:46;;;;;;;10.30;8.60;;;;;;;10.31;84.37;99339.94;103777;278;39609;-69
2023/03/31 00:20:19;;;;;;;12.20;8.40;;;;;;;10.31;84.25;99336.45;103768;278;40183;-70
2023/03/31 00:22:53;;;;;;;11.00;8.10;;;;;;;10.31;84.20;99337.49;103657;278;40486;-71
2023/03/31 00:25:27;;;;;;;9.10;8.00;;;;;;;10.32;84.20;99337.08;103496;280;175327;-69
2023/03/31 00:28:01;;;;;;;11.40;8.80;;;;;;;10.34;84.26;99338.92;103811;278;38500;-69
2023/03/31 00:30:35;;;;;;;10.50;8.80;;;;;;;10.36;84.38;99342.80;103776;278;38607;-71
2023/03/31 00:33:09;;;;;;;11.90;8.30;;;;;;;10.36;84.31;99344.73;103784;279;38562;-69
2023/03/31 00:35:44;;;;;;;11.30;7.80;;;;;;;10.36;84.17;99343.34;103788;278;39809;-71
2023/03/31 00:38:20;;;;;;;10.10;7.60;;;;;;;10.38;84.23;99349.54;103789;278;38283;-70
2023/03/31 00:40:54;;;;;;;10.80;8.60;;;;;;;10.39;84.08;99342.30;103801;279;39046;-70
2023/03/31 00:43:34;;;;;;;9.70;8.30;;;;;;;10.38;84.17;99342.87;103791;278;39896;-72
2023/03/31 00:46:16;;;;;;;10.80;8.60;;;;;;;10.40;84.11;99347.00;103811;278;38260;-71
2023/03/31 00:48:52;;;;;;;10.90;8.60;;;;;;;10.39;83.98;99347.01;103772;278;39098;-72
2023/03/31 00:51:28;;;;;;;10.70;7.60;;;;;;;10.39;83.90;99342.98;103800;278;38600;-73
2023/03/31 00:54:04;;;;;;;9.90;8.00;;;;;;;10.40;83.77;99343.14;103769;278;39408;-72
2023/03/31 00:56:39;;;;;;;12.30;8.50;;;;;;;10.39;83.62;99335.48;103779;278;39471;-74
2023/03/31 00:59:14;;;;;;;11.70;8.50;;;;;;;10.40;83.63;99332.13;103689;278;175297;-73
2023/03/31 01:01:51;;;;;;;11.00;9.00;;;;;;;10.41;83.53;99333.14;103777;278;38286;-75
2023/03/31 01:04:26;;;;;;;9.40;7.80;;;;;;;10.40;83.51;99332.15;103804;278;39966;-72
2023/03/31 01:07:04;;;;;;;9.70;7.80;;;;;;;10.39;83.49;99333.41;103692;279;39423;-74
2023/03/31 01:09:39;;;;;;;10.20;8.50;;;;;;;10.40;83.51;99330.43;103798;278;38459;-72
2023/03/31 01:12:13;;;;;;;9.90;7.60;;;;;;;10.41;83.39;99332.09;103820;278;38228;-73
2023/03/31 01:14:47;;;;;;;9.30;8.30;;;;;;;10.41;83.34;99328.44;103782;278;39312;-74
2023/03/31 01:17:22;;;;;;;9.40;7.30;;;;;;;10.39;83.13;99325.44;103811;278;40135;-72
2023/03/31 01:20:10;;;;;;;8.90;6.50;;;;;;;10.33;83.09;99329.52;103775;278;38537;-72
2023/03/31 01:23:00;;;;;;;8.10;7.00;;;;;;;10.31;83.24;99325.62;103744;278;38268;-71
2023/03/31 01:26:08;;;;;;;8.10;6.80;;;;;;;10.33;83.25;99325.52;103776;278;39720;-73
2023/03/31 01:28:45;;;;;;;8.70;7.00;;;;;;;10.34;83.27;99328.45;103786;278;38345;-72
2023/03/31 01:31:51;;;;;;;10.60;8.20;;;;;;;10.32;83.25;99324.91;103793;278;39743;-69
2023/03/31 01:35:01;;;;;;;9.30;7.40;;;;;;;10.29;83.30;99325.73;103275;278;717130;-71
2023/03/31 01:38:30;;;;;;;8.00;6.50;;;;;;;10.29;83.35;99325.73;103774;278;38235;-72
2023/03/31 01:41:25;;;;;;;8.20;7.00;;;;;;;10.30;83.30;99322.55;103826;278;38769;-72
2023/03/31 01:44:03;;;;;;;9.00;7.40;;;;;;;10.31;83.24;99324.60;103774;278;39437;-70
2023/03/31 01:46:40;;;;;;;11.90;7.50;;;;;;;10.32;83.24;99325.73;103828;278;38289;-72
2023/03/31 01:49:20;;;;;;;10.90;7.10;;;;;;;10.32;83.04;99324.38;103765;278;38407;-70
2023/03/31 01:52:00;;;;;;;8.90;7.40;;;;;;;10.33;83.12;99329.05;103804;278;38507;-72
2023/03/31 01:54:38;;;;;;;8.80;7.70;;;;;;;10.30;83.07;99329.86;103756;278;38710;-72
2023/03/31 01:57:16;;;;;;;9.10;7.40;;;;;;;10.31;83.01;99331.57;103801;278;38474;-71
2023/03/31 01:59:56;;;;;;;8.10;7.20;;;;;;;10.29;82.97;99331.67;103805;278;38946;-69
2023/03/31 02:02:33;;;;;;;8.00;6.50;;;;;;;10.28;83.07;99335.21;103809;278;38379;-69
2023/03/31 02:05:11;;;;;;;8.20;7.00;;;;;;;10.27;83.02;99333.52;103789;278;38788;-69
2023/03/31 02:07:49;;;;;;;9.20;6.80;;;;;;;10.27;83.10;99329.48;103810;278;38253;-72
2023/03/31 02:10:23;;;;;;;8.80;7.20;;;;;;;10.27;83.18;99328.13;103833;278;40110;-72
2023/03/31 02:12:57;;;;;;;7.70;6.90;;;;;;;10.26;82.94;99328.17;103825;278;39648;-72
2023/03/31 02:15:33;;;;;;;8.20;7.00;;;;;;;10.24;82.84;99334.01;103773;278;40159;-73
2023/03/31 02:18:10;;;;;;;7.40;6.70;;;;;;;10.20;82.72;99333.69;103824;279;38742;-71
2023/03/31 02:20:45;;;;;;;8.20;7.10;;;;;;;10.21;82.89;99332.43;103827;278;38816;-72
2023/03/31 02:23:20;;;;;;;9.70;7.60;;;;;;;10.21;82.85;99335.38;103782;278;38539;-72
2023/03/31 02:25:55;;;;;;;9.20;7.20;;;;;;;10.20;82.98;99339.25;103770;279;38821;-71
2023/03/31 02:28:30;;;;;;;10.00;6.70;;;;;;;10.20;82.98;99340.84;103815;279;38791;-68
2023/03/31 02:31:12;;;;;;;8.10;7.30;;;;;;;10.22;82.98;99335.85;103816;278;39006;-73
2023/03/31 02:33:46;;;;;;;9.00;7.30;;;;;;;10.23;83.01;99336.67;103767;279;39386;-72
2023/03/31 02:36:21;;;;;;;9.70;7.40;;;;;;;10.24;82.78;99334.73;103690;279;39793;-71
2023/03/31 02:38:57;;;;;;;8.00;6.80;;;;;;;10.22;82.76;99333.56;103769;278;38775;-71
2023/03/31 02:41:31;;;;;;;7.40;6.30;;;;;;;10.21;82.67;99330.87;103761;278;38757;-71
2023/03/31 02:44:06;;;;;;;7.40;6.60;;;;;;;10.18;82.56;99331.19;103785;278;38840;-71
2023/03/31 02:46:39;;;;;;;8.10;6.90;;;;;;;10.11;82.37;99329.84;103826;278;39160;-74
2023/03/31 02:49:13;;;;;;;7.70;6.90;;;;;;;10.05;82.42;99328.41;103777;279;38688;-72
2023/03/31 02:52:11;;;;;;;9.00;7.90;;;;;;;10.00;82.41;99330.58;103787;278;38246;-73
2023/03/31 02:55:31;;;;;;;8.10;7.00;;;;;;;9.94;82.67;99336.48;103740;278;40126;-72
2023/03/31 02:58:29;;;;;;;8.30;6.60;;;;;;;9.91;82.83;99339.75;103618;279;38816;-72
2023/03/31 03:01:13;;;;;;;9.60;6.90;;;;;;;9.92;83.00;99341.79;103677;279;39937;-71
2023/03/31 03:03:55;;;;;;;8.30;7.40;;;;;;;9.93;83.04;99338.80;103636;279;39092;-71
2023/03/31 03:06:39;;;;;;;8.10;7.30;;;;;;;9.94;83.18;99336.63;103656;279;38563;-71
2023/03/31 03:09:28;;;;;;;7.70;6.90;;;;;;;9.95;83.10;99335.35;103636;279;38459;-71
2023/03/31 03:12:11;;;;;;;8.70;6.70;;;;;;;9.97;83.21;99338.05;103656;279;38515;-69
2023/03/31 03:14:48;;;;;;;7.80;6.40;;;;;;;9.97;83.09;99342.73;103659;279;38504;-70
2023/03/31 03:17:26;;;;;;;10.50;7.30;;;;;;;9.96;82.95;99346.64;103724;279;39561;-72
2023/03/31 03:20:01;;;;;;;9.80;7.50;;;;;;;9.96;82.87;99350.30;103678;279;38633;-71
2023/03/31 03:22:36;;;;;;;7.80;6.80;;;;;;;9.94;82.97;99350.05;103687;279;38452;-72
2023/03/31 03:25:12;;;;;;;7.70;6.90;;;;;;;9.93;82.96;99357.05;103528;279;175369;-74
2023/03/31 03:27:46;;;;;;;7.30;6.00;;;;;;;9.91;82.89;99354.38;103681;279;39846;-68
2023/03/31 03:30:20;;;;;;;6.80;6.20;;;;;;;9.90;82.97;99355.64;103634;279;38777;-71
2023/03/31 03:32:55;;;;;;;7.50;6.80;;;;;;;9.90;82.96;99355.69;103695;279;38259;-70
2023/03/31 03:35:29;;;;;;;8.30;7.50;;;;;;;9.90;82.96;99360.02;103698;279;39463;-71
2023/03/31 03:38:02;;;;;;;8.20;7.30;;;;;;;9.89;82.97;99361.79;103705;279;39932;-71
2023/03/31 03:40:36;;;;;;;9.40;7.00;;;;;;;9.88;82.88;99361.67;103663;279;39475;-73
2023/03/31 03:43:10;;;;;;;8.30;7.00;;;;;;;9.85;82.74;99360.95;103680;279;38757;-74
2023/03/31 03:45:44;;;;;;;8.90;7.00;;;;;;;9.80;82.85;99362.58;103503;279;39393;-74
2023/03/31 03:48:19;;;;;;;8.60;7.60;;;;;;;9.77;82.67;99363.06;103590;279;175357;-73
2023/03/31 03:50:54;;;;;;;10.50;8.30;;;;;;;9.73;82.71;99370.11;103678;279;38787;-73
2023/03/31 03:53:28;;;;;;;8.30;7.40;;;;;;;9.68;82.56;99368.80;103633;279;39553;-69
2023/03/31 03:56:02;;;;;;;7.90;7.20;;;;;;;9.61;82.49;99370.17;103637;279;38282;-71
2023/03/31 03:58:36;;;;;;;9.20;7.20;;;;;;;9.56;82.53;99371.48;103658;279;39709;-69
2023/03/31 04:01:10;;;;;;;9.60;8.70;;;;;;;9.50;82.64;99370.38;103668;279;38503;-72
2023/03/31 04:03:44;;;;;;;8.90;7.70;;;;;;;9.42;82.54;99367.80;103639;279;39681;-72
2023/03/31 04:06:18;;;;;;;7.40;6.60;;;;;;;9.34;82.36;99374.29;103688;279;39450;-71
2023/03/31 04:08:52;;;;;;;7.90;7.00;;;;;;;9.28;82.41;99371.64;103591;279;175381;-69
2023/03/31 04:11:26;;;;;;;9.90;8.10;;;;;;;9.21;82.63;99375.98;103648;279;38605;-73
2023/03/31 04:14:01;;;;;;;10.20;9.20;;;;;;;9.16;82.68;99378.66;103693;279;38272;-73
2023/03/31 04:16:37;;;;;;;9.90;8.00;;;;;;;9.09;82.56;99377.62;103624;279;38414;-74
2023/03/31 04:19:12;;;;;;;10.20;9.00;;;;;;;9.00;82.45;99373.69;103712;279;40007;-74
2023/03/31 04:21:49;;;;;;;9.70;8.70;;;;;;;8.93;82.59;99372.26;103695;279;39419;-71
2023/03/31 04:24:29;;;;;;;9.10;8.00;;;;;;;8.86;82.57;99371.41;103686;279;39029;-72
2023/03/31 04:27:06;;;;;;;10.80;9.70;;;;;;;8.77;82.66;99367.61;103688;279;39355;-73
2023/03/31 04:29:41;;;;;;;9.70;8.50;;;;;;;8.72;83.09;99369.58;103538;268;175465;-73
2023/03/31 04:32:20;;;;;;;10.30;8.00;;;;;;;8.68;82.92;99367.38;103666;279;38915;-69
2023/03/31 04:35:01;;;;;;;9.10;7.90;;;;;;;8.62;82.87;99368.50;103673;279;38717;-69
2023/03/31 04:37:37;;;;;;;10.70;9.60;;;;;;;8.57;82.84;99370.66;103652;279;38513;-72
2023/03/31 04:40:15;;;;;;;12.10;10.00;;;;;;;8.54;83.47;99370.27;103683;279;39428;-71
2023/03/31 04:42:50;;;;;;;12.80;9.60;;;;;;;8.53;83.70;99366.48;103579;279;176317;-72
2023/03/31 04:45:24;;;;;;;10.70;9.10;;;;;;;8.54;83.75;99361.94;103702;279;39471;-74
2023/03/31 04:47:58;;;;;;;10.80;9.70;;;;;;;8.56;83.93;99361.83;103681;279;39431;-71
2023/03/31 04:50:38;;;;;;;10.70;9.40;;;;;;;8.59;84.09;99360.47;103672;279;38799;-70
2023/03/31 04:53:13;;;;;;;13.70;10.80;;;;;;;8.64;84.38;99362.52;103460;279;39535;-74
2023/03/31 04:55:49;;;;;;;10.80;9.60;;;;;;;8.72;84.66;99359.52;103663;279;38830;-74
2023/03/31 04:58:24;;;;;;;11.90;10.10;;;;;;;8.78;84.78;99355.55;103710;268;38477;-75
2023/03/31 05:00:58;;;;;;;12.50;9.90;;;;;;;8.85;84.94;99354.42;103681;279;39830;-73
2023/03/31 05:03:33;;;;;;;11.80;9.30;;;;;;;8.91;84.92;99353.61;103691;279;38262;-72
2023/03/31 05:06:08;;;;;;;11.30;10.00;;;;;;;8.99;85.09;99346.93;103654;268;39242;-71
2023/03/31 05:08:42;;;;;;;11.50;10.30;;;;;;;9.10;85.27;99351.45;103714;279;39882;-71
2023/03/31 05:11:16;;;;;;;14.40;11.10;;;;;;;9.18;85.19;99349.84;103670;279;38274;-70
2023/03/31 05:13:54;;;;;;;12.80;10.00;;;;;;;9.24;85.08;99349.19;103665;279;38264;-70
2023/03/31 05:16:28;;;;;;;11.10;9.70;;;;;;;9.31;85.01;99345.21;103687;279;38467;-71
2023/03/31 05:19:02;;;;;;;12.90;9.70;;;;;;;9.42;85.10;99341.90;103669;279;38274;-72
2023/03/31 05:21:37;;;;;;;13.10;10.70;;;;;;;9.54;85.22;99342.86;103653;279;38222;-74
2023/03/31 05:24:12;;;;;;;14.10;10.90;;;;;;;9.64;85.15;99336.80;103669;279;38239;-71
2023/03/31 05:26:51;;;;;;;12.70;11.40;;;;;;;9.70;84.98;99334.88;103718;279;38396;-68
2023/03/31 05:29:25;;;;;;;12.30;10.40;;;;;;;9.76;84.69;99333.19;103701;279;39447;-68
2023/03/31 05:32:00;;;;;;;11.80;9.90;;;;;;;9.80;84.42;99334.02;103699;279;39443;-69
2023/03/31 05:34:35;;;;;;;13.10;10.30;;;;;;;9.85;84.35;99331.86;103671;279;39428;-69
2023/03/31 05:37:09;;;;;;;13.10;10.90;;;;;;;9.89;84.26;99328.21;103722;279;38571;-70
2023/03/31 05:39:43;;;;;;;11.70;10.40;;;;;;;9.92;84.33;99329.06;103662;279;38247;-72
2023/03/31 05:42:20;;;;;;;11.70;10.00;;;;;;;9.97;84.20;99325.52;103703;279;38440;-70
2023/03/31 05:44:57;;;;;;;11.00;9.70;;;;;;;10.03;84.20;99323.79;103675;279;38283;-70
2023/03/31 05:47:32;;;;;;;13.30;10.40;;;;;;;10.10;84.20;99324.65;103687;280;39889;-73
2023/03/31 05:50:07;;;;;;;14.70;11.30;;;;;;;10.16;84.15;99324.01;103696;279;39796;-73
2023/03/31 05:52:41;;;;;;;13.10;11.20;;;;;;;10.20;84.05;99330.41;103686;279;39444;-70
2023/03/31 05:55:27;;;;;;;14.20;10.60;;;;;;;10.22;83.99;99327.66;103687;279;38427;-75
2023/03/31 05:58:01;;;;;;;13.30;10.30;;;;;;;10.25;83.81;99325.45;103035;279;921383;-72
2023/03/31 06:00:36;;;;;;;11.40;9.80;;;;;;;10.29;83.69;99329.42;103676;279;38782;-71
2023/03/31 06:03:10;;;;;;;14.00;10.60;;;;;;;10.34;83.61;99327.41;103690;279;39416;-72
2023/03/31 06:05:52;;;;;;;13.60;11.70;;;;;;;10.36;83.51;99326.95;103653;279;38411;-72
2023/03/31 06:08:27;;;;;;;12.60;10.60;;;;;;;10.38;83.37;99323.35;103662;279;38626;-70
2023/03/31 06:11:01;;;;;;;11.60;10.30;;;;;;;10.40;83.31;99327.27;103646;279;38857;-73
2023/03/31 06:13:35;;;;;;;13.70;10.80;;;;;;;10.46;83.47;99322.55;103684;279;38375;-74
2023/03/31 06:16:10;;;;;;;13.30;11.10;;;;;;;10.56;83.50;99317.13;103679;279;38371;-71
2023/03/31 06:18:44;;;;;;;13.60;11.60;;;;;;;10.69;83.73;99312.08;103673;279;38247;-72
2023/03/31 06:21:20;;;;;;;12.60;11.30;;;;;;;10.83;83.80;99314.91;103659;279;38309;-73
2023/03/31 06:23:57;;;;;;;14.80;10.80;;;;;;;11.01;83.86;99314.63;103693;279;39882;-73
2023/03/31 06:26:33;;;;;;;12.10;10.70;;;;;;;11.21;83.38;99315.91;103597;279;38246;-73
2023/03/31 06:29:07;;;;;;;12.80;10.80;;;;;;;11.29;82.66;99316.67;103707;279;38700;-73
2023/03/31 06:31:41;;;;;;;13.30;11.90;;;;;;;11.31;82.07;99316.56;103722;279;38215;-74
2023/03/31 06:34:15;;;;;;;13.70;11.90;;;;;;;11.31;81.82;99318.70;103656;279;39086;-72
2023/03/31 06:36:49;;;;;;;13.00;11.00;;;;;;;11.29;81.55;99317.73;103636;279;38973;-74
2023/03/31 06:39:24;;;;;;;12.60;10.80;;;;;;;11.30;81.41;99314.38;103588;279;38298;-74
2023/03/31 06:41:58;;;;;;;13.30;11.50;;;;;;;11.31;81.31;99308.16;103515;281;40093;-71
2023/03/31 06:44:32;;;;;;;13.20;11.80;;;;;;;11.34;81.21;99314.11;103515;279;39361;-71
2023/03/31 06:47:06;;;;;;;13.30;11.80;;;;;;;11.37;81.16;99307.98;103658;279;38455;-72
2023/03/31 06:49:40;;;;;;;14.50;12.40;;;;;;;11.39;80.74;99309.14;103669;279;39652;-73
2023/03/31 06:52:15;;;;;;;13.70;11.10;;;;;;;11.44;81.13;99304.67;103675;278;38874;-74
2023/03/31 06:54:49;;;;;;;13.00;11.30;;;;;;;11.55;81.43;99305.53;103494;279;38291;-74
2023/03/31 06:57:23;;;;;;;12.80;11.20;;;;;;;11.76;81.40;99298.92;103685;279;39751;-71
2023/03/31 06:59:56;;;;;;;15.90;11.80;;;;;;;11.95;81.29;99304.63;103617;279;38713;-72
2023/03/31 07:02:30;;;;;;;13.50;12.10;;;;;;;12.08;80.60;99301.21;103656;279;39740;-70
2023/03/31 07:05:05;;;;;;;14.40;12.70;;;;;;;12.18;80.22;99305.83;103677;279;39301;-73
2023/03/31 07:07:39;;;;;;;15.40;12.60;;;;;;;12.23;79.49;99310.10;103655;279;38445;-73
2023/03/31 07:10:15;;;;;;;13.40;12.00;;;;;;;12.23;79.11;99309.19;103670;279;40333;-73
2023/03/31 07:12:49;;;;;;;15.30;12.50;;;;;;;12.32;79.12;99308.81;103662;279;38477;-71
2023/03/31 07:15:24;;;;;;;15.10;12.40;;;;;;;12.42;78.71;99314.13;103661;279;38718;-69
2023/03/31 07:18:02;;;;;;;16.20;12.70;;;;;;;12.48;78.58;99313.95;103634;279;38951;-72
2023/03/31 07:20:36;;;;;;;14.70;13.30;;;;;;;12.63;78.91;99313.66;103630;279;40200;-74
2023/03/31 07:23:11;;;;;;;15.90;13.60;;;;;;;12.90;78.70;99317.59;103656;279;38820;-73
2023/03/31 07:25:45;;;;;;;17.30;14.20;;;;;;;13.03;77.52;99316.73;103655;279;38349;-73
2023/03/31 07:28:23;;;;;;;17.00;14.60;;;;;;;13.00;76.48;99309.39;103652;279;38368;-72
2023/03/31 07:30:57;;;;;;;17.30;15.50;;;;;;;13.02;76.54;99304.92;103681;279;38496;-72
2023/03/31 07:33:32;;;;;;;16.20;14.50;;;;;;;13.05;76.29;99304.32;103692;279;39719;-72
2023/03/31 07:36:09;;;;;;;15.30;13.70;;;;;;;13.11;76.22;99299.72;103648;279;38253;-73
2023/03/31 07:38:44;;;;;;;15.40;13.80;;;;;;;13.20;75.97;99301.45;103696;279;39139;-71
2023/03/31 07:41:21;;;;;;;15.60;14.00;;;;;;;13.27;75.34;99301.73;103707;279;38282;-73
2023/03/31 07:43:55;;;;;;;15.50;13.70;;;;;;;13.33;74.94;99302.31;103633;279;39409;-74
2023/03/31 07:46:30;;;;;;;18.00;14.00;;;;;;;13.41;74.43;99299.19;103646;279;38215;-71
2023/03/31 07:49:04;;;;;;;15.70;14.20;;;;;;;13.50;74.45;99298.05;103613;280;38591;-72
2023/03/31 07:51:38;;;;;;;15.20;13.30;;;;;;;13.60;73.62;99289.99;103715;268;38372;-74
2023/03/31 07:54:12;;;;;;;15.40;12.90;;;;;;;13.71;73.43;99283.45;103672;279;38707;-74
2023/03/31 07:56:46;;;;;;;13.90;12.40;;;;;;;13.92;73.15;99278.02;103687;279;38802;-72
2023/03/31 07:59:20;;;;;;;13.40;12.10;;;;;;;14.05;72.58;99282.00;103040;279;904925;-73
2023/03/31 08:01:55;;;;;;;12.90;11.70;;;;;;;14.12;72.14;99275.21;103656;279;39914;-75
2023/03/31 08:04:31;;;;;;;13.90;12.20;;;;;;;14.19;71.96;99279.10;103656;268;38630;-75
2023/03/31 08:07:05;;;;;;;13.20;11.50;;;;;;;14.31;71.59;99278.63;103691;279;38494;-74
2023/03/31 08:09:39;;;;;;;13.90;11.20;;;;;;;14.37;70.10;99272.17;103679;279;38870;-72
2023/03/31 08:12:13;;;;;;;12.60;11.30;;;;;;;14.45;70.13;99269.90;103653;279;39442;-72
2023/03/31 08:14:48;;;;;;;12.50;11.30;;;;;;;14.46;69.49;99267.21;103682;279;38213;-72
2023/03/31 08:17:22;;;;;;;13.90;10.90;;;;;;;14.44;69.29;99269.79;103713;279;38273;-73
2023/03/31 08:19:55;;;;;;;11.80;10.60;;;;;;;14.37;68.54;99267.46;103714;279;38703;-73
2023/03/31 08:22:29;;;;;;;15.40;11.30;;;;;;;14.31;68.75;99271.95;103669;279;38552;-72
2023/03/31 08:25:04;;;;;;;11.90;10.70;;;;;;;14.24;68.79;99271.37;103696;279;39462;-72
2023/03/31 08:27:39;;;;;;;12.50;11.20;;;;;;;14.11;68.64;99269.34;103714;279;39392;-74
2023/03/31 08:30:15;;;;;;;13.80;11.80;;;;;;;13.90;68.93;99263.44;103663;279;39095;-73
2023/03/31 08:32:49;;;;;;;13.60;11.40;;;;;;;13.71;69.57;99257.55;103671;279;38966;-74
2023/03/31 08:35:23;;;;;;;11.30;10.20;;;;;;;13.55;70.32;99250.61;103664;279;38241;-74
2023/03/31 08:37:58;;;;;;;12.00;10.40;;;;;;;13.49;71.26;99246.95;103723;279;38287;-72
2023/03/31 08:40:32;;;;;;;12.60;11.00;;;;;;;13.83;73.74;99243.39;103691;279;38944;-71
2023/03/31 08:43:11;;;;;;;14.60;11.00;;;;;;;14.12;72.94;99234.54;103706;279;38485;-72
2023/03/31 08:45:46;;;;;;;13.70;11.50;;;;;;;14.21;72.28;99231.45;103588;279;175146;-70
2023/03/31 08:48:24;;;;;;;13.80;12.30;;;;;;;14.25;72.17;99231.64;103678;279;38532;-74
2023/03/31 08:51:06;;;;;;;13.10;11.80;;;;;;;14.35;72.22;99229.71;103539;279;39649;-72
2023/03/31 08:53:41;;;;;;;13.00;11.50;;;;;;;14.70;73.07;99226.11;103469;279;176866;-70
2023/03/31 08:56:19;;;;;;;14.30;12.10;;;;;;;15.22;73.24;99219.15;103665;279;38397;-70
2023/03/31 08:58:54;;;;;;;12.20;10.80;;;;;;;15.87;71.20;99218.02;103663;279;40122;-72
2023/03/31 09:01:34;;;;;;;13.00;11.20;;;;;;;16.19;69.27;99217.05;103597;279;39667;-74
2023/03/31 09:04:21;;;;;;;12.60;11.30;;;;;;;16.40;67.34;99214.86;103651;279;39913;-73
2023/03/31 09:06:59;;;;;;;11.60;10.30;;;;;;;16.40;65.69;99214.30;103642;279;39129;-73
2023/03/31 09:09:46;;;;;;;11.40;9.70;;;;;;;16.39;65.27;99214.98;103696;279;38219;-73
2023/03/31 09:12:23;;;;;;;10.90;9.70;;;;;;;16.24;64.08;99216.01;103522;279;38568;-72
2023/03/31 09:15:00;;;;;;;11.10;9.00;;;;;;;16.17;64.87;99211.23;103657;279;39809;-72
2023/03/31 09:17:35;;;;;;;12.10;9.70;;;;;;;16.19;64.81;99209.83;103595;279;39629;-73
2023/03/31 09:20:17;;;;;;;12.00;9.70;;;;;;;16.18;64.38;99213.50;103637;279;40160;-73
2023/03/31 09:22:53;;;;;;;10.50;9.50;;;;;;;16.07;64.01;99212.91;103681;279;39710;-73
2023/03/31 09:25:31;;;;;;;12.70;9.90;;;;;;;15.91;63.50;99213.85;103709;279;38507;-73
2023/03/31 09:28:07;;;;;;;12.60;10.60;;;;;;;15.78;63.33;99209.02;103678;279;39705;-72
2023/03/31 09:30:41;;;;;;;10.40;9.10;;;;;;;15.69;63.85;99208.86;103642;279;38444;-74
2023/03/31 09:33:17;;;;;;;13.20;9.10;;;;;;;15.67;63.82;99206.92;103654;279;39670;-72
2023/03/31 09:35:54;;;;;;;9.90;8.90;;;;;;;15.66;63.65;99208.20;103225;279;607100;-72
2023/03/31 09:38:29;;;;;;;10.50;8.80;;;;;;;15.66;63.80;99205.02;103652;279;38517;-73
2023/03/31 09:41:05;;;;;;;10.00;8.30;;;;;;;15.82;64.20;99205.95;103643;279;39400;-72
2023/03/31 09:43:39;;;;;;;8.40;7.10;;;;;;;16.12;64.43;99205.51;103675;279;39432;-72
2023/03/31 09:46:22;;;;;;;8.60;7.20;;;;;;;16.37;62.73;99203.30;103714;279;38598;-70
2023/03/31 09:49:05;;;;;;;8.00;6.20;;;;;;;16.47;62.65;99198.09;103671;279;39607;-70
2023/03/31 09:51:41;;;;;;;9.70;6.90;;;;;;;16.57;62.33;99195.95;103668;279;38289;-72
2023/03/31 09:54:20;;;;;;;8.60;6.50;;;;;;;16.66;62.29;99195.19;103692;279;38308;-73
2023/03/31 09:56:54;;;;;;;9.60;5.80;;;;;;;16.69;61.54;99192.61;103627;279;40019;-73
2023/03/31 09:59:35;;;;;;;9.20;6.20;;;;;;;16.74;61.55;99192.60;103666;279;40224;-73
2023/03/31 10:02:34;;;;;;;8.00;5.50;;;;;;;16.78;60.75;99188.34;103672;279;38488;-74
2023/03/31 10:05:18;;;;;;;9.30;5.80;;;;;;;16.83;60.69;99183.20;103639;279;40773;-75
2023/03/31 10:07:52;;;;;;;7.90;5.60;;;;;;;16.95;60.57;99177.28;103652;279;39683;-72
2023/03/31 10:10:31;;;;;;;8.50;5.30;;;;;;;17.05;60.44;99170.15;103662;279;38536;-73
2023/03/31 10:13:07;;;;;;;;;;;;;;;17.20;60.27;99166.69;103713;279;38313;-72
2023/03/31 10:15:42;;;;;;;7.00;4.80;;;;;;;17.33;60.08;99160.83;103628;279;39453;-72
2023/03/31 10:18:19;;;;;;;9.40;4.70;;;;;;;17.54;60.24;99157.43;103728;279;38737;-73
2023/03/31 10:21:00;;;;;;;9.20;5.10;;;;;;;17.81;59.72;99150.89;103652;279;39657;-71
2023/03/31 10:23:35;;;;;;;8.00;5.10;;;;;;;18.00;58.96;99150.48;103616;279;38273;-72
2023/03/31 10:26:14;;;;;;;8.80;5.30;;;;;;;18.25;58.98;99143.20;103709;279;39704;-72
2023/03/31 10:28:51;;;;;;;9.80;5.00;;;;;;;18.49;58.42;99143.06;103645;279;38704;-76
2023/03/31 10:31:27;;;;;;;8.40;5.20;;;;;;;18.68;57.02;99144.73;103708;279;38410;-72
2023/03/31 10:34:01;;;;;;;9.40;5.20;;;;;;;18.77;56.63;99135.48;103666;279;39620;-72
2023/03/31 10:36:36;;;;;;;7.80;5.10;;;;;;;18.89;56.92;99135.97;103665;279;38390;-74
2023/03/31 10:39:11;;;;;;;11.10;5.50;;;;;;;18.91;55.25;99132.23;103653;279;40187;-74
2023/03/31 10:41:45;;;;;;;7.10;5.10;;;;;;;18.80;55.10;99130.07;103708;279;39015;-71
2023/03/31 10:44:37;;;;;;;10.70;5.30;;;;;;;18.75;54.96;99130.13;103655;279;38961;-72
2023/03/31 10:47:21;;;;;;;8.70;5.20;;;;;;;18.72;54.46;99129.04;103645;279;38927;-72
2023/03/31 10:49:59;;;;;;;9.00;4.60;;;;;;;18.75;54.88;99127.11;103657;279;38521;-73
2023/03/31 10:52:34;;;;;;;10.40;4.50;;;;;;;18.88;54.71;99125.63;103697;279;39696;-73
2023/03/31 10:55:14;;;;;;;8.10;4.40;;;;;;;18.93;54.65;99121.59;103672;279;38277;-71
2023/03/31 10:57:53;;;;;;;6.60;4.10;;;;;;;19.05;54.49;99117.88;103686;279;38404;-71
2023/03/31 11:00:31;;;;;;;7.60;4.80;;;;;;;19.18;54.26;99115.60;103644;279;39394;-72
2023/03/31 11:03:43;;;;;;;7.60;4.50;;;;;;;19.25;53.02;99116.67;103646;279;39674;-73
2023/03/31 11:06:19;;;;;;;8.70;4.50;;;;;;;19.20;53.04;99110.40;103639;279;40109;-72
2023/03/31 11:09:00;;;;;;;7.90;4.30;;;;;;;19.21;53.14;99112.08;103669;279;39245;-73
2023/03/31 11:11:55;;;;;;;7.30;4.00;;;;;;;19.24;52.94;99112.73;103684;279;38808;-73
2023/03/31 11:14:36;;;;;;;8.40;3.90;;;;;;;19.13;52.10;99109.64;103693;279;39671;-74
2023/03/31 11:17:19;;;;;;;6.60;4.10;;;;;;;18.99;51.88;99106.16;103627;279;39785;-73
2023/03/31 11:19:59;;;;;;;8.50;4.50;;;;;;;18.88;51.40;99095.80;103676;279;38202;-74
2023/03/31 11:22:38;;;;;;;6.80;4.30;;;;;;;18.77;51.45;99099.24;103658;279;38509;-74
2023/03/31 11:25:35;;;;;;;6.40;4.30;;;;;;;18.64;51.79;99091.44;103720;279;38309;-73
2023/03/31 11:28:27;;;;;;;6.70;4.40;;;;;;;18.65;52.34;99087.81;103487;279;41070;-73
2023/03/31 11:31:12;;;;;;;6.70;4.10;;;;;;;18.66;51.90;99084.14;103663;279;38231;-74
2023/03/31 11:34:00;;;;;;;6.40;4.30;;;;;;;18.60;51.94;99081.19;103677;279;38775;-76
2023/03/31 11:36:59;;;;;;;9.20;4.10;;;;;;;18.61;51.79;99083.23;103687;268;38799;-77
2023/03/31 11:39:43;;;;;;;5.80;4.10;;;;;;;18.53;51.79;99079.12;103650;279;40139;-84
2023/03/31 11:42:20;;;;;;;6.30;4.20;;;;;;;18.52;51.80;99080.10;103700;279;38829;-73
2023/03/31 11:44:55;;;;;;;7.40;3.80;;;;;;;18.48;52.39;99077.66;103517;280;38850;-72
2023/03/31 11:47:30;;;;;;;8.80;4.40;;;;;;;18.48;52.35;99075.73;103686;279;38754;-74
2023/03/31 11:50:09;;;;;;;6.90;4.40;;;;;;;18.44;52.51;99075.23;103684;279;39930;-73
2023/03/31 11:52:46;;;;;;;9.10;4.90;;;;;;;18.47;52.53;99072.80;103672;279;38505;-74
2023/03/31 11:55:20;;;;;;;8.40;4.80;;;;;;;18.48;52.46;99064.77;103665;268;38554;-74
2023/03/31 11:58:01;;;;;;;7.80;4.10;;;;;;;18.50;52.57;99061.98;103711;279;38880;-73
2023/03/31 12:00:38;;;;;;;8.60;4.30;;;;;;;18.62;52.81;99057.50;103641;279;38224;-74
2023/03/31 12:03:16;;;;;;;8.70;4.50;;;;;;;18.73;52.49;99049.94;103701;279;38225;-73
2023/03/31 12:05:53;;;;;;;7.60;4.40;;;;;;;18.75;52.41;99047.27;103663;279;38923;-72
2023/03/31 12:08:31;;;;;;;6.90;4.20;;;;;;;18.79;52.21;99047.42;103669;279;38618;-73
2023/03/31 12:11:08;;;;;;;6.80;4.70;;;;;;;18.79;51.91;99045.48;103731;279;38852;-73
2023/03/31 12:13:47;;;;;;;7.70;3.40;;;;;;;18.77;51.50;99039.52;103675;279;39597;-74
2023/03/31 12:16:23;;;;;;;6.20;3.30;;;;;;;18.75;51.35;99034.89;103720;279;38269;-71
2023/03/31 12:19:05;;;;;;;6.50;3.20;;;;;;;18.78;51.03;99030.73;103532;279;174891;-74